createdAt,value
2022-11-15T00:00:53.347Z,101824.53
2022-11-15T00:03:26.358Z,101833.47
2022-11-15T00:05:53.028Z,101821.94
2022-11-15T00:08:19.652Z,101819.47
2022-11-15T00:10:56.959Z,101818.00
2022-11-15T00:13:23.730Z,101820.69
2022-11-15T00:15:50.305Z,101818.97
2022-11-15T00:18:17.408Z,101822.63
2022-11-15T00:20:43.977Z,101815.63
2022-11-15T00:23:10.600Z,101810.13
2022-11-15T00:25:37.161Z,101810.13
2022-11-15T00:28:03.764Z,101814.66
2022-11-15T00:30:30.405Z,101803.91
2022-11-15T00:32:57.035Z,101806.81
2022-11-15T00:35:23.660Z,101801.13
2022-11-15T00:37:50.158Z,101802.56
2022-11-15T00:40:16.711Z,101801.06
2022-11-15T00:42:43.322Z,101794.94
2022-11-15T00:45:10.536Z,101796.88
2022-11-15T00:47:37.052Z,101793.34
2022-11-15T00:50:03.964Z,101795.91
2022-11-15T00:52:30.490Z,101792.47
2022-11-15T00:54:56.967Z,101781.59
2022-11-15T00:57:23.739Z,101780.72
2022-11-15T00:59:50.192Z,101780.84
2022-11-15T01:02:16.705Z,101781.94
2022-11-15T01:04:43.198Z,101776.88
2022-11-15T01:07:09.717Z,101774.53
2022-11-15T01:09:36.252Z,101777.31
2022-11-15T01:12:02.764Z,101768.50
2022-11-15T01:14:29.218Z,101774.13
2022-11-15T01:16:55.775Z,101776.06
2022-11-15T01:19:22.231Z,101762.81
2022-11-15T01:21:51.760Z,101770.25
2022-11-15T01:24:18.449Z,101761.44
2022-11-15T01:26:44.966Z,101754.34
2022-11-15T01:29:11.489Z,101758.13
2022-11-15T01:31:38.042Z,101750.06
2022-11-15T01:34:04.728Z,101747.25
2022-11-15T01:36:31.286Z,101748.22
2022-11-15T01:38:58.905Z,101742.84
2022-11-15T01:41:27.641Z,101743.69
2022-11-15T01:43:56.520Z,101730.16
2022-11-15T01:46:27.015Z,101730.81
2022-11-15T01:48:55.276Z,101734.09
2022-11-15T01:51:24.513Z,101723.16
2022-11-15T01:53:54.319Z,101717.78
2022-11-15T01:56:24.017Z,101720.47
2022-11-15T01:58:52.698Z,101716.91
2022-11-15T02:01:19.346Z,101717.22
2022-11-15T02:04:22.303Z,101712.00
2022-11-15T02:06:49.557Z,101696.91
2022-11-15T02:09:17.765Z,101696.31
2022-11-15T02:11:45.015Z,101701.78
2022-11-15T02:14:15.000Z,101695.75
2022-11-15T02:16:47.767Z,101697.69
2022-11-15T02:19:32.456Z,101688.03
2022-11-15T02:22:46.885Z,101690.63
2022-11-15T02:25:38.803Z,101688.88
2022-11-15T02:28:28.630Z,101687.28
2022-11-15T02:31:17.844Z,101679.56
2022-11-15T02:33:56.056Z,101686.22
2022-11-15T02:36:37.382Z,101680.09
2022-11-15T02:39:08.404Z,101696.34
2022-11-15T02:41:34.878Z,101693.75
2022-11-15T02:44:05.922Z,101691.16
2022-11-15T02:46:56.772Z,101690.41
2022-11-15T02:49:25.684Z,101689.44
2022-11-15T02:51:52.966Z,101686.88
2022-11-15T02:54:23.490Z,101690.63
2022-11-15T02:56:51.102Z,101691.69
2022-11-15T02:59:55.136Z,101678.38
2022-11-15T03:02:49.214Z,101681.63
2022-11-15T03:05:28.294Z,101673.03
2022-11-15T03:08:07.054Z,101675.72
2022-11-15T03:10:42.500Z,101671.31
2022-11-15T03:13:20.639Z,101661.75
2022-11-15T03:16:18.039Z,101662.06
2022-11-15T03:18:49.239Z,101650.59
2022-11-15T03:21:17.216Z,101647.25
2022-11-15T03:23:44.286Z,101635.75
2022-11-15T03:26:13.628Z,101639.41
2022-11-15T03:28:54.204Z,101632.44
2022-11-15T03:31:44.452Z,101631.56
2022-11-15T03:34:27.531Z,101628.03
2022-11-15T03:36:54.286Z,101625.34
2022-11-15T03:39:21.505Z,101618.13
2022-11-15T03:42:12.219Z,101617.28
2022-11-15T03:44:42.396Z,101612.03
2022-11-15T03:47:17.665Z,101605.81
2022-11-15T03:49:48.029Z,101601.28
2022-11-15T03:52:18.816Z,101599.47
2022-11-15T03:54:54.418Z,101608.59
2022-11-15T03:57:21.055Z,101606.97
2022-11-15T03:59:47.614Z,101604.41
2022-11-15T04:02:14.783Z,101606.13
2022-11-15T04:04:41.248Z,101599.78
2022-11-15T04:07:07.823Z,101595.16
2022-11-15T04:09:34.559Z,101601.19
2022-11-15T04:12:01.439Z,101594.97
2022-11-15T04:14:27.913Z,101595.81
2022-11-15T04:16:54.413Z,101590.34
2022-11-15T04:19:39.523Z,101593.97
2022-11-15T04:22:24.275Z,101588.75
2022-11-15T04:24:50.796Z,101596.03
2022-11-15T04:27:17.268Z,101588.19
2022-11-15T04:29:43.784Z,101586.50
2022-11-15T04:32:10.416Z,101582.72
2022-11-15T04:34:37.357Z,101586.91
2022-11-15T04:37:12.634Z,101581.75
2022-11-15T04:39:43.470Z,101576.50
2022-11-15T04:42:10.627Z,101577.34
2022-11-15T04:44:37.335Z,101569.72
2022-11-15T04:47:04.233Z,101575.19
2022-11-15T04:49:30.819Z,101581.31
2022-11-15T04:51:57.346Z,101576.81
2022-11-15T04:54:23.947Z,101576.72
2022-11-15T04:56:50.551Z,101569.50
2022-11-15T04:59:17.117Z,101563.38
2022-11-15T05:01:45.033Z,101560.94
2022-11-15T05:04:21.262Z,101558.47
2022-11-15T05:06:52.357Z,101564.16
2022-11-15T05:09:20.116Z,101550.97
2022-11-15T05:11:46.999Z,101548.47
2022-11-15T05:14:13.791Z,101544.00
2022-11-15T05:16:40.517Z,101545.78
2022-11-15T05:19:07.400Z,101534.22
2022-11-15T05:21:34.794Z,101536.16
2022-11-15T05:24:01.489Z,101523.72
2022-11-15T05:26:28.403Z,101528.84
2022-11-15T05:28:56.233Z,101524.31
2022-11-15T05:31:23.283Z,101519.94
2022-11-15T05:33:51.733Z,101518.09
2022-11-15T05:36:32.474Z,101525.06
2022-11-15T05:38:59.144Z,101524.13
2022-11-15T05:41:37.155Z,101526.72
2022-11-15T05:44:06.212Z,101521.22
2022-11-15T05:46:33.632Z,101517.47
2022-11-15T05:49:00.235Z,101519.16
2022-11-15T05:51:28.286Z,101517.47
2022-11-15T05:53:56.518Z,101512.97
2022-11-15T05:56:23.106Z,101516.28
2022-11-15T05:58:49.693Z,101512.72
2022-11-15T06:01:16.348Z,101506.41
2022-11-15T06:03:43.019Z,101507.16
2022-11-15T06:06:15.086Z,101504.47
2022-11-15T06:08:43.216Z,101497.38
2022-11-15T06:11:09.751Z,101499.19
2022-11-15T06:13:36.273Z,101489.31
2022-11-15T06:16:02.788Z,101494.81
2022-11-15T06:18:29.618Z,101493.84
2022-11-15T06:20:59.785Z,101493.84
2022-11-15T06:23:26.510Z,101496.50
2022-11-15T06:25:53.023Z,101492.84
2022-11-15T06:28:19.572Z,101494.47
2022-11-15T06:30:49.190Z,101489.72
2022-11-15T06:33:19.388Z,101496.72
2022-11-15T06:35:45.914Z,101491.22
2022-11-15T06:38:12.721Z,101495.53
2022-11-15T06:40:40.133Z,101487.78
2022-11-15T06:43:07.394Z,101484.13
2022-11-15T06:45:33.971Z,101483.06
2022-11-15T06:48:00.442Z,101484.66
2022-11-15T06:50:26.978Z,101482.59
2022-11-15T06:52:53.544Z,101490.44
2022-11-15T06:55:20.090Z,101490.31
2022-11-15T06:57:53.403Z,101491.06
2022-11-15T07:00:21.360Z,101501.59
2022-11-15T07:02:48.371Z,101489.88
2022-11-15T07:05:15.800Z,101488.91
2022-11-15T07:07:42.319Z,101492.47
2022-11-15T07:10:09.591Z,101484.28
2022-11-15T07:12:36.263Z,101488.47
2022-11-15T07:15:02.866Z,101484.59
2022-11-15T07:17:29.359Z,101471.91
2022-11-15T07:19:55.864Z,101488.63
2022-11-15T07:22:22.460Z,101485.72
2022-11-15T07:24:48.950Z,101482.91
2022-11-15T07:27:15.504Z,101494.28
2022-11-15T07:29:42.248Z,101491.19
2022-11-15T07:32:08.963Z,101487.41
2022-11-15T07:34:35.503Z,101494.38
2022-11-15T07:37:03.497Z,101487.03
2022-11-15T07:39:30.437Z,101487.78
2022-11-15T07:42:16.945Z,101489.41
2022-11-15T07:44:43.447Z,101488.88
2022-11-15T07:47:09.938Z,101486.88
2022-11-15T07:49:36.462Z,101476.91
2022-11-15T07:52:03.053Z,101477.75
2022-11-15T07:54:29.583Z,101475.38
2022-11-15T07:56:56.148Z,101475.72
2022-11-15T07:59:22.712Z,101479.47
2022-11-15T08:01:49.294Z,101484.25
2022-11-15T08:04:15.884Z,101478.13
2022-11-15T08:06:42.499Z,101484.44
2022-11-15T08:09:09.024Z,101481.75
2022-11-15T08:11:35.521Z,101484.34
2022-11-15T08:14:01.980Z,101484.00
2022-11-15T08:16:28.546Z,101479.25
2022-11-15T08:18:55.145Z,101485.28
2022-11-15T08:21:22.293Z,101485.03
2022-11-15T08:23:49.096Z,101482.28
2022-11-15T08:26:15.839Z,101483.41
2022-11-15T08:28:42.428Z,101487.97
2022-11-15T08:31:14.905Z,101477.38
2022-11-15T08:33:41.468Z,101484.00
2022-11-15T08:36:15.659Z,101487.19
2022-11-15T08:38:42.251Z,101480.47
2022-11-15T08:41:14.892Z,101473.41
2022-11-15T08:43:41.471Z,101479.91
2022-11-15T08:46:11.773Z,101480.28
2022-11-15T08:48:38.243Z,101477.47
2022-11-15T08:51:04.886Z,101477.38
2022-11-15T08:53:31.336Z,101482.75
2022-11-15T08:55:57.871Z,101480.91
2022-11-15T08:58:24.596Z,101475.41
2022-11-15T09:00:51.404Z,101474.41
2022-11-15T09:03:18.000Z,101479.69
2022-11-15T09:05:44.718Z,101476.16
2022-11-15T09:08:40.314Z,101475.31
2022-11-15T09:10:58.756Z,101481.75
2022-11-15T09:13:25.250Z,101474.91
2022-11-15T09:15:51.942Z,101478.94
2022-11-15T09:18:19.635Z,101475.63
2022-11-15T09:20:48.356Z,101483.22
2022-11-15T09:23:14.868Z,101478.06
2022-11-15T09:25:41.703Z,101477.22
2022-11-15T09:28:09.012Z,101480.00
2022-11-15T09:30:35.537Z,101486.47
2022-11-15T09:33:11.122Z,101481.22
2022-11-15T09:35:37.835Z,101480.47
2022-11-15T09:38:05.022Z,101480.63
2022-11-15T09:40:32.860Z,101486.31
2022-11-15T09:43:33.776Z,101479.47
2022-11-15T09:46:24.038Z,101477.75
2022-11-15T09:48:50.557Z,101484.25
2022-11-15T09:51:48.663Z,101477.75
2022-11-15T09:57:18.048Z,101476.03
2022-11-15T09:59:44.598Z,101472.00
2022-11-15T10:02:39.167Z,101460.63
2022-11-15T10:05:09.459Z,101457.19
2022-11-15T10:07:45.999Z,101456.00
2022-11-15T10:10:25.759Z,101452.72
2022-11-15T10:12:53.905Z,101446.00
2022-11-15T10:15:23.901Z,101429.88
2022-11-15T10:18:00.966Z,101433.28
2022-11-15T10:20:29.794Z,101430.13
2022-11-15T10:23:06.823Z,101420.63
2022-11-15T10:25:34.995Z,101415.00
2022-11-15T10:28:07.335Z,101420.88
2022-11-15T10:30:41.544Z,101406.44
2022-11-15T10:33:22.121Z,101400.44
2022-11-15T10:35:48.635Z,101400.06
2022-11-15T10:38:15.212Z,101395.69
2022-11-15T10:40:44.824Z,101384.06
2022-11-15T10:43:11.473Z,101385.66
2022-11-15T10:45:39.168Z,101378.34
2022-11-15T10:48:14.958Z,101362.69
2022-11-15T10:50:44.141Z,101360.34
2022-11-15T10:53:25.213Z,101364.28
2022-11-15T10:55:55.967Z,101358.91
2022-11-15T10:58:42.787Z,101344.56
2022-11-15T11:01:21.082Z,101348.00
2022-11-15T11:04:08.235Z,101337.13
2022-11-15T11:06:58.951Z,101332.59
2022-11-15T11:09:28.936Z,101321.81
2022-11-15T11:11:56.071Z,101315.38
2022-11-15T11:14:24.659Z,101303.50
2022-11-15T11:17:18.907Z,101290.28
2022-11-15T11:20:08.553Z,101290.97
2022-11-15T11:23:25.704Z,101274.91
2022-11-15T11:26:04.248Z,101272.94
2022-11-15T11:29:01.931Z,101271.19
2022-11-15T11:31:48.603Z,101261.88
2022-11-15T11:34:39.030Z,101260.75
2022-11-15T11:37:33.418Z,101261.22
2022-11-15T11:40:10.889Z,101250.31
2022-11-15T11:42:41.271Z,101247.75
2022-11-15T11:45:21.327Z,101242.38
2022-11-15T11:47:52.016Z,101232.69
2022-11-15T11:50:28.617Z,101230.16
2022-11-15T11:53:04.157Z,101232.84
2022-11-15T11:55:34.441Z,101228.31
2022-11-15T11:58:17.611Z,101227.31
2022-11-15T12:00:56.909Z,101222.53
2022-11-15T12:03:30.469Z,101220.09
2022-11-15T12:06:03.225Z,101215.81
2022-11-15T12:08:48.423Z,101214.00
2022-11-15T12:11:22.659Z,101208.34
2022-11-15T12:13:52.007Z,101208.09
2022-11-15T12:16:28.810Z,101198.59
2022-11-15T12:18:57.795Z,101195.38
2022-11-15T12:21:46.020Z,101199.41
2022-11-15T12:24:27.800Z,101185.53
2022-11-15T12:27:26.346Z,101181.56
2022-11-15T12:33:00.877Z,101170.38
2022-11-15T12:35:39.611Z,101160.63
2022-11-15T12:38:10.755Z,101165.13
2022-11-15T12:41:16.123Z,101163.31
2022-11-15T12:43:44.252Z,101149.69
2022-11-15T12:46:34.343Z,101160.06
2022-11-15T12:49:12.699Z,101158.09
2022-11-15T12:51:48.315Z,101154.41
2022-11-15T12:54:23.877Z,101148.03
2022-11-15T12:57:07.428Z,101149.00
2022-11-15T12:59:59.799Z,101147.69
2022-11-15T13:02:31.482Z,101137.75
2022-11-15T13:05:23.431Z,101139.13
2022-11-15T13:07:50.024Z,101134.88
2022-11-15T13:10:28.642Z,101127.25
2022-11-15T13:13:00.507Z,101122.00
2022-11-15T13:15:43.103Z,101118.72
2022-11-15T13:18:28.787Z,101109.66
2022-11-15T13:21:00.949Z,101098.72
2022-11-15T13:23:28.793Z,101103.84
2022-11-15T13:26:07.647Z,101103.56
2022-11-15T13:28:38.790Z,101101.59
2022-11-15T13:31:24.016Z,101097.06
2022-11-15T13:33:51.022Z,101094.53
2022-11-15T13:36:26.803Z,101093.50
2022-11-15T13:39:01.542Z,101085.44
2022-11-15T13:41:30.711Z,101089.97
2022-11-15T13:43:58.068Z,101080.88
2022-11-15T13:46:29.368Z,101083.59
2022-11-15T13:49:01.840Z,101076.63
2022-11-15T13:51:34.385Z,101078.59
2022-11-15T13:54:13.739Z,101083.16
2022-11-15T13:56:43.652Z,101073.22
2022-11-15T13:59:27.040Z,101067.72
2022-11-15T14:01:55.164Z,101072.97
2022-11-15T14:04:24.127Z,101069.56
2022-11-15T14:06:54.512Z,101064.16
2022-11-15T14:09:33.815Z,101070.28
2022-11-15T14:12:01.624Z,101056.81
2022-11-15T14:14:30.015Z,101055.78
2022-11-15T14:17:00.820Z,101055.09
2022-11-15T14:19:27.493Z,101059.63
2022-11-15T14:22:09.032Z,101058.78
2022-11-15T14:24:35.618Z,101049.97
2022-11-15T14:27:21.139Z,101053.81
2022-11-15T14:29:49.112Z,101045.72
2022-11-15T14:32:17.986Z,101041.91
2022-11-15T14:34:44.602Z,101038.19
2022-11-15T14:37:23.903Z,101035.25
2022-11-15T14:39:50.952Z,101033.53
2022-11-15T14:42:18.264Z,101026.16
2022-11-15T14:44:46.276Z,101025.19
2022-11-15T14:47:13.162Z,101033.28
2022-11-15T14:49:39.771Z,101024.47
2022-11-15T14:52:32.519Z,101016.53
2022-11-15T14:55:00.639Z,101005.03
2022-11-15T14:57:27.214Z,101005.16
2022-11-15T14:59:53.888Z,101008.84
2022-11-15T15:02:26.723Z,101011.69
2022-11-15T15:04:53.966Z,100998.22
2022-11-15T15:07:21.147Z,101004.72
2022-11-15T15:09:47.856Z,101013.06
2022-11-15T15:12:19.966Z,101011.63
2022-11-15T15:14:47.092Z,101001.16
2022-11-15T15:17:13.591Z,101004.13
2022-11-15T15:19:40.342Z,101004.25
2022-11-15T15:22:09.834Z,101008.81
2022-11-15T15:24:36.322Z,101008.09
2022-11-15T15:27:02.850Z,101001.84
2022-11-15T15:29:29.419Z,101005.53
2022-11-15T15:31:55.996Z,101002.97
2022-11-15T15:34:22.791Z,100995.88
2022-11-15T15:36:49.292Z,100999.44
2022-11-15T15:39:16.307Z,100996.88
2022-11-15T15:41:42.828Z,100992.47
2022-11-15T15:44:12.561Z,100984.53
2022-11-15T15:46:39.098Z,100983.81
2022-11-15T15:49:05.674Z,100977.59
2022-11-15T15:51:32.172Z,100973.16
2022-11-15T15:53:59.124Z,100976.56
2022-11-15T15:56:25.851Z,100975.88
2022-11-15T15:58:53.561Z,100967.06
2022-11-15T16:01:20.165Z,100969.88
2022-11-15T16:03:46.850Z,100970.06
2022-11-15T16:06:46.039Z,100960.25
2022-11-15T16:09:17.878Z,100958.28
2022-11-15T16:11:46.250Z,100958.28
2022-11-15T16:14:12.781Z,100959.13
2022-11-15T16:16:39.436Z,100955.47
2022-11-15T16:19:06.056Z,100955.47
2022-11-15T16:21:32.618Z,100954.63
2022-11-15T16:23:59.170Z,100950.19
2022-11-15T16:26:27.619Z,100952.06
2022-11-15T16:28:54.420Z,100947.50
2022-11-15T16:31:23.783Z,100958.28
2022-11-15T16:33:50.476Z,100942.13
2022-11-15T16:36:29.838Z,100952.75
2022-11-15T16:38:57.192Z,100939.44
2022-11-15T16:41:23.673Z,100934.91
2022-11-15T16:43:50.190Z,100932.19
2022-11-15T16:46:22.361Z,100936.75
2022-11-15T16:48:49.576Z,100925.97
2022-11-15T16:51:17.026Z,100930.50
2022-11-15T16:53:44.084Z,100929.78
2022-11-15T16:56:24.313Z,100936.88
2022-11-15T16:58:51.207Z,100935.06
2022-11-15T17:01:38.495Z,100931.66
2022-11-15T17:04:13.044Z,100924.53
2022-11-15T17:06:40.806Z,100935.47
2022-11-15T17:09:11.419Z,100928.38
2022-11-15T17:11:37.985Z,100929.22
2022-11-15T17:14:04.502Z,100926.81
2022-11-15T17:16:31.073Z,100930.34
2022-11-15T17:18:57.608Z,100933.88
2022-11-15T17:21:24.214Z,100924.13
2022-11-15T17:23:50.720Z,100938.41
2022-11-15T17:26:29.579Z,100927.94
2022-11-15T17:28:57.295Z,100924.63
2022-11-15T17:31:23.919Z,100923.91
2022-11-15T17:33:50.493Z,100929.53
2022-11-15T17:36:17.023Z,100936.06
2022-11-15T17:38:43.526Z,100929.25
2022-11-15T17:41:12.765Z,100937.72
2022-11-15T17:43:39.355Z,100937.00
2022-11-15T17:46:08.542Z,100930.06
2022-11-15T17:48:35.523Z,100929.47
2022-11-15T17:51:06.862Z,100924.38
2022-11-15T17:53:37.745Z,100929.03
2022-11-15T17:56:17.158Z,100921.94
2022-11-15T17:58:52.131Z,100914.75
2022-11-15T18:01:22.683Z,100922.81
2022-11-15T18:03:49.586Z,100921.69
2022-11-15T18:06:17.390Z,100920.97
2022-11-15T18:08:45.216Z,100917.56
2022-11-15T18:11:22.733Z,100920.25
2022-11-15T18:13:52.558Z,100912.31
2022-11-15T18:16:21.200Z,100912.19
2022-11-15T18:18:48.259Z,100914.03
2022-11-15T18:21:17.305Z,100912.19
2022-11-15T18:23:43.869Z,100914.88
2022-11-15T18:26:13.520Z,100914.03
2022-11-15T18:28:42.525Z,100913.88
